Time;durP1;ratioP1;P1;durP2;ratioP2;P2;SDS_P1;SDS_P2;PMS_P1;PMS_P2;Temp;Humidity;BMP_temperature;BMP_pressure;BME280_temperature;BME280_humidity;BME280_pressure;Samples;Min_cycle;Max_cycle;Signal;HPM_P1;HPM_P2
2022/02/05 00:00:45;;;;;;;3.37;3.03;;;10.10;99.90;;;;;;5091652;28;20267;-74
2022/02/05 00:03:19;;;;;;;4.37;3.63;;;10.10;99.90;;;;;;5091123;28;20209;-74
2022/02/05 00:05:52;;;;;;;3.13;2.77;;;10.10;99.90;;;;;;5090987;28;20205;-74
2022/02/05 00:08:34;;;;;;;4.90;3.50;;;10.10;99.90;;;;;;5091651;28;20206;-74
2022/02/05 00:11:34;;;;;;;3.73;3.07;;;10.10;99.90;;;;;;5091581;28;20205;-75
2022/02/05 00:38:17;;;;;;;2.77;2.20;;;10.10;99.90;;;;;;5091293;28;20264;-73
2022/02/05 00:39:19;;;;;;;2.63;2.20;;;10.10;99.90;;;;;;5090516;28;20688;-72
2022/02/05 00:41:51;;;;;;;5.93;2.63;;;10.10;99.90;;;;;;5090714;28;20732;-73
2022/02/05 00:44:18;;;;;;;6.33;2.70;;;10.10;99.90;;;;;;5091242;28;20466;-73
2022/02/05 00:46:47;;;;;;;3.37;2.70;;;10.10;99.90;;;;;;5090671;28;20669;-72
2022/02/05 00:49:14;;;;;;;4.53;2.30;;;10.10;99.90;;;;;;5091220;28;20619;-73
2022/02/05 00:51:48;;;;;;;6.07;2.67;;;10.10;99.90;;;;;;5090422;28;20282;-72
2022/02/05 00:54:18;;;;;;;4.57;2.60;;;10.10;99.90;;;;;;5090746;28;20280;-74
2022/02/05 00:57:18;;;;;;;6.90;2.40;;;10.10;99.90;;;;;;5090517;28;20584;-77
2022/02/05 00:59:44;;;;;;;4.77;2.90;;;10.10;99.90;;;;;;5090382;28;20570;-74
2022/02/05 01:02:11;;;;;;;6.13;2.70;;;10.10;99.90;;;;;;5090787;28;20205;-74
2022/02/05 01:04:38;;;;;;;3.40;2.83;;;10.10;99.90;;;;;;5090214;28;20266;-74
2022/02/05 01:07:06;;;;;;;3.23;2.30;;;10.10;99.90;;;;;;5090890;28;20263;-74
2022/02/05 01:09:33;;;;;;;3.00;2.43;;;10.10;99.90;;;;;;5090307;28;20205;-75
2022/02/05 01:12:02;;;;;;;8.07;3.20;;;10.10;99.90;;;;;;5090686;28;20723;-76
2022/02/05 01:14:40;;;;;;;2.47;2.27;;;10.00;99.90;;;;;;5090923;28;20205;-74
2022/02/05 01:17:09;;;;;;;3.13;2.43;;;10.00;99.90;;;;;;5090511;28;20197;-74
2022/02/05 01:22:32;;;;;;;4.93;2.73;;;10.00;99.90;;;;;;5054303;28;20211;-74
2022/02/05 01:24:59;;;;;;;4.90;2.43;;;10.00;99.90;;;;;;5090665;28;20198;-73
2022/02/05 01:27:38;;;;;;;5.10;2.90;;;9.90;99.90;;;;;;5090752;28;20677;-74
2022/02/05 01:30:16;;;;;;;4.50;2.57;;;10.00;99.90;;;;;;5094565;28;20252;-73
2022/02/05 01:32:52;;;;;;;5.50;2.97;;;10.00;99.90;;;;;;5094079;28;20595;-74
2022/02/05 01:35:26;;;;;;;3.57;3.27;;;10.00;99.90;;;;;;5094690;28;20672;-74
2022/02/05 01:54:35;;;;;;;5.10;2.90;;;10.10;99.90;;;;;;5083404;28;20215;-75
2022/02/05 01:57:07;;;;;;;4.97;3.57;;;10.00;99.90;;;;;;5094166;28;20296;-75
2022/02/05 01:59:49;;;;;;;5.07;3.10;;;10.00;99.90;;;;;;5093790;28;20391;-75
2022/02/05 02:05:03;;;;;;;3.40;2.37;;;10.00;99.90;;;;;;5053555;28;20590;-75
2022/02/05 02:10:40;;;;;;;3.93;3.23;;;9.90;99.90;;;;;;5053706;28;20649;-76
2022/02/05 02:16:02;;;;;;;7.13;2.83;;;10.00;99.90;;;;;;5053254;28;20202;-76
2022/02/05 02:18:40;;;;;;;6.07;2.60;;;10.00;99.90;;;;;;5053429;28;20203;-75
2022/02/05 02:21:18;;;;;;;5.30;3.00;;;10.00;99.90;;;;;;5053378;28;20225;-75
2022/02/05 02:23:58;;;;;;;4.40;2.90;;;9.90;99.90;;;;;;5053024;28;20211;-75
2022/02/05 02:26:36;;;;;;;3.93;2.63;;;10.00;99.90;;;;;;5053819;28;20210;-76
2022/02/05 02:29:07;;;;;;;4.70;3.63;;;10.00;99.90;;;;;;5053196;28;20689;-75
2022/02/05 02:31:39;;;;;;;6.17;3.33;;;10.00;99.90;;;;;;5052838;28;20213;-75
2022/02/05 02:34:09;;;;;;;3.30;2.57;;;9.90;99.90;;;;;;5053014;28;20203;-75
2022/02/05 02:36:42;;;;;;;4.33;3.13;;;9.90;99.90;;;;;;5052565;28;20203;-75
2022/02/05 02:39:14;;;;;;;4.27;2.67;;;9.90;99.90;;;;;;5052596;28;20207;-74
2022/02/05 02:41:47;;;;;;;4.90;3.67;;;9.90;99.90;;;;;;5052509;28;20231;-74
2022/02/05 02:44:14;;;;;;;4.67;3.60;;;9.90;99.90;;;;;;5053028;28;20670;-74
2022/02/05 02:46:41;;;;;;;4.20;2.93;;;9.90;99.90;;;;;;5052612;28;20207;-79
2022/02/05 02:49:12;;;;;;;4.63;2.50;;;9.90;99.90;;;;;;5052990;28;20257;-74
2022/02/05 02:57:16;;;;;;;3.43;2.93;;;9.90;99.90;;;;;;5052732;28;20293;-74
2022/02/05 02:59:52;;;;;;;6.17;3.00;;;9.80;99.90;;;;;;5052464;28;20207;-74
2022/02/05 03:02:23;;;;;;;4.47;2.53;;;9.70;99.90;;;;;;5052805;28;20203;-73
2022/02/05 03:04:52;;;;;;;7.20;3.07;;;9.50;99.90;;;;;;5052167;28;20349;-74
2022/02/05 03:07:19;;;;;;;7.63;3.73;;;9.30;99.90;;;;;;5052587;28;20264;-76
2022/02/05 03:09:47;;;;;;;4.80;3.17;;;9.20;99.90;;;;;;5052457;28;20203;-74
2022/02/05 03:12:14;;;;;;;4.50;2.80;;;9.10;99.90;;;;;;5052644;28;20683;-74
2022/02/05 03:14:41;;;;;;;6.10;3.50;;;8.90;99.90;;;;;;5052315;28;20202;-74
2022/02/05 03:17:19;;;;;;;3.90;2.90;;;8.80;99.90;;;;;;5052082;28;20253;-74
2022/02/05 03:19:47;;;;;;;5.40;3.37;;;8.70;99.90;;;;;;5052035;28;20253;-75
2022/02/05 03:22:16;;;;;;;3.63;3.30;;;8.70;99.90;;;;;;5052370;28;20207;-75
2022/02/05 03:24:43;;;;;;;6.80;4.50;;;8.60;99.90;;;;;;5052060;28;20234;-74
2022/02/05 03:27:13;;;;;;;7.27;4.43;;;8.60;99.90;;;;;;5052406;28;20207;-74
2022/02/05 03:29:42;;;;;;;6.83;4.83;;;8.60;99.90;;;;;;5051842;28;20215;-74
2022/02/05 03:32:10;;;;;;;7.20;4.93;;;8.60;99.90;;;;;;5051615;28;20649;-79
2022/02/05 03:34:37;;;;;;;8.37;4.27;;;8.50;99.90;;;;;;5051744;28;20260;-74
2022/02/05 03:37:05;;;;;;;7.80;4.07;;;8.50;99.90;;;;;;5052155;28;20222;-74
2022/02/05 03:39:32;;;;;;;6.20;3.97;;;8.40;99.90;;;;;;5051406;28;20261;-74
2022/02/05 03:41:59;;;;;;;5.93;4.43;;;8.40;99.90;;;;;;5052043;28;20207;-74
2022/02/05 03:44:28;;;;;;;7.70;4.30;;;8.30;99.90;;;;;;5052177;28;20211;-74
2022/02/05 03:46:55;;;;;;;6.67;4.50;;;8.30;99.90;;;;;;5051715;28;20214;-74
2022/02/05 03:49:23;;;;;;;6.93;4.37;;;8.20;99.90;;;;;;5052085;28;20592;-74
2022/02/05 03:51:51;;;;;;;6.17;3.70;;;8.20;99.90;;;;;;5051320;28;20211;-74
2022/02/05 03:54:20;;;;;;;7.37;4.27;;;8.20;99.90;;;;;;5051852;28;20568;-73
2022/02/05 03:56:47;;;;;;;5.93;4.13;;;8.30;99.90;;;;;;5051383;28;20244;-73
2022/02/05 03:59:15;;;;;;;7.93;3.80;;;8.40;99.90;;;;;;5051612;28;20207;-73
2022/02/05 04:01:43;;;;;;;6.47;4.10;;;8.50;99.90;;;;;;5050938;28;20721;-75
2022/02/05 04:04:10;;;;;;;5.23;3.90;;;8.60;99.90;;;;;;5051568;28;20203;-74
2022/02/05 04:06:37;;;;;;;6.93;5.20;;;8.50;99.90;;;;;;5051101;28;20206;-74
2022/02/05 04:09:08;;;;;;;8.17;4.97;;;8.60;99.90;;;;;;5051380;28;20199;-74
2022/02/05 04:11:49;;;;;;;9.33;5.23;;;8.60;99.90;;;;;;5051032;28;20206;-74
2022/02/05 04:17:03;;;;;;;8.23;5.37;;;8.70;99.90;;;;;;5051102;28;20321;-74
2022/02/05 04:19:30;;;;;;;5.27;3.93;;;8.70;99.90;;;;;;5051257;28;20210;-74
2022/02/05 04:21:57;;;;;;;7.60;4.50;;;8.70;99.90;;;;;;5051635;28;20206;-74
2022/02/05 04:24:24;;;;;;;6.80;3.83;;;8.70;99.90;;;;;;5051421;28;20207;-74
2022/02/05 04:26:51;;;;;;;6.23;3.60;;;8.60;99.90;;;;;;5051035;28;20210;-74
2022/02/05 04:29:17;;;;;;;5.87;4.30;;;8.50;99.90;;;;;;5051282;28;20203;-75
2022/02/05 04:31:45;;;;;;;7.17;3.40;;;8.50;99.90;;;;;;5050665;28;20268;-74
2022/02/05 04:34:13;;;;;;;5.53;3.87;;;8.60;99.90;;;;;;5051066;28;20230;-74
2022/02/05 04:36:40;;;;;;;5.43;3.90;;;8.60;99.90;;;;;;5050480;28;20207;-75
2022/02/05 04:39:11;;;;;;;6.50;3.97;;;8.70;99.90;;;;;;5050879;28;20210;-75
2022/02/05 04:41:46;;;;;;;5.47;3.37;;;8.70;99.90;;;;;;5050672;28;20297;-74
2022/02/05 04:44:22;;;;;;;4.40;3.00;;;8.60;99.90;;;;;;5050746;28;20288;-74
2022/02/05 04:47:16;;;;;;;6.63;3.57;;;8.60;99.90;;;;;;5050440;28;20765;-74
2022/02/05 04:55:37;;;;;;;5.63;3.83;;;8.60;99.90;;;;;;5050828;28;20202;-74
2022/02/05 04:58:21;;;;;;;5.80;3.43;;;8.70;99.90;;;;;;5050569;28;20205;-75
2022/02/05 05:01:01;;;;;;;6.30;3.77;;;8.70;99.90;;;;;;5050083;28;20207;-74
2022/02/05 05:03:46;;;;;;;3.87;3.43;;;8.80;99.90;;;;;;5050332;28;20253;-75
2022/02/05 05:06:32;;;;;;;4.23;3.20;;;8.90;99.90;;;;;;5050584;28;20213;-74
2022/02/05 05:09:18;;;;;;;3.37;2.97;;;9.00;99.90;;;;;;5050581;28;20586;-74
2022/02/05 05:11:52;;;;;;;6.77;3.23;;;9.00;99.90;;;;;;5050288;28;20217;-74
2022/02/05 05:19:48;;;;;;;3.43;2.70;;;9.00;99.90;;;;;;5050237;28;20213;-73
2022/02/05 05:22:17;;;;;;;5.40;2.87;;;9.00;99.90;;;;;;5050652;28;20206;-74
2022/02/05 05:24:44;;;;;;;8.63;2.90;;;9.00;99.90;;;;;;5050094;28;20207;-73
2022/02/05 05:27:11;;;;;;;4.73;2.63;;;9.00;99.90;;;;;;5050626;28;20206;-73
2022/02/05 05:29:39;;;;;;;3.83;2.10;;;9.00;99.90;;;;;;5049989;28;20265;-74
2022/02/05 05:32:07;;;;;;;7.40;2.77;;;9.00;99.90;;;;;;5050577;28;20203;-73
2022/02/05 05:34:34;;;;;;;2.43;1.90;;;9.00;99.90;;;;;;5050110;28;20321;-73
2022/02/05 05:37:03;;;;;;;3.77;2.27;;;9.00;99.90;;;;;;5050156;28;20732;-73
2022/02/05 05:39:33;;;;;;;4.17;2.00;;;9.00;99.90;;;;;;5050075;28;20663;-73
2022/02/05 05:42:00;;;;;;;4.97;3.20;;;9.00;99.90;;;;;;5049987;28;20582;-74
2022/02/05 05:50:02;;;;;;;4.20;1.90;;;9.00;99.90;;;;;;5039751;28;20694;-78
2022/02/05 05:52:30;;;;;;;3.77;2.00;;;9.00;99.90;;;;;;5049965;28;20202;-75
2022/02/05 05:54:59;;;;;;;5.30;2.10;;;9.00;99.90;;;;;;5050611;28;20203;-74
2022/02/05 05:57:26;;;;;;;4.37;2.70;;;9.00;99.90;;;;;;5050365;28;20253;-74
2022/02/05 05:59:53;;;;;;;3.83;2.43;;;9.00;99.90;;;;;;5050132;28;20241;-74
2022/02/05 06:02:20;;;;;;;4.10;2.60;;;8.90;99.90;;;;;;5050053;28;20249;-74
2022/02/05 06:04:47;;;;;;;8.17;3.00;;;8.90;99.90;;;;;;5049532;28;20218;-74
2022/02/05 06:07:14;;;;;;;2.90;2.33;;;9.00;99.90;;;;;;5050244;28;20324;-74
2022/02/05 06:09:43;;;;;;;2.47;2.13;;;9.00;99.90;;;;;;5049783;28;20231;-74
2022/02/05 06:12:12;;;;;;;8.17;3.30;;;9.00;99.90;;;;;;5049918;28;20561;-76
2022/02/05 06:14:40;;;;;;;7.77;3.83;;;9.00;99.90;;;;;;5049896;28;20273;-73
2022/02/05 06:17:10;;;;;;;3.63;2.13;;;9.00;99.90;;;;;;5053607;28;20202;-73
2022/02/05 06:19:39;;;;;;;3.23;2.50;;;9.00;99.90;;;;;;5053432;28;20206;-73
2022/02/05 06:22:07;;;;;;;4.20;2.50;;;9.00;99.90;;;;;;5053742;28;20287;-73
2022/02/05 06:24:34;;;;;;;4.20;2.37;;;9.00;99.90;;;;;;5053102;28;20566;-73
2022/02/05 06:27:01;;;;;;;4.93;2.60;;;9.00;99.90;;;;;;5053132;28;20199;-74
2022/02/05 06:29:29;;;;;;;5.93;3.07;;;8.90;99.90;;;;;;5053394;28;20261;-73
2022/02/05 06:31:56;;;;;;;4.47;2.40;;;8.90;99.90;;;;;;5053787;28;20260;-74
2022/02/05 06:34:24;;;;;;;4.83;2.30;;;8.90;99.90;;;;;;5053683;28;20234;-74
2022/02/05 06:36:51;;;;;;;3.57;2.90;;;8.90;99.90;;;;;;5052860;28;20211;-72
2022/02/05 06:39:18;;;;;;;5.60;2.60;;;8.90;99.90;;;;;;5053070;28;20211;-72
2022/02/05 06:41:46;;;;;;;6.33;2.33;;;8.90;99.90;;;;;;5052617;28;20252;-72
2022/02/05 06:44:14;;;;;;;5.03;3.47;;;8.90;99.90;;;;;;5053028;28;20234;-71
2022/02/05 06:46:42;;;;;;;3.97;2.53;;;8.90;99.90;;;;;;5052871;28;20615;-71
2022/02/05 06:49:10;;;;;;;4.47;3.30;;;8.90;99.90;;;;;;5053163;28;20260;-72
2022/02/05 06:51:37;;;;;;;6.20;3.30;;;9.00;99.90;;;;;;5052569;28;20276;-72
2022/02/05 06:54:04;;;;;;;6.93;3.53;;;8.90;99.90;;;;;;5052989;28;20288;-74
2022/02/05 06:56:31;;;;;;;6.10;3.60;;;9.00;99.90;;;;;;5052209;28;20775;-72
2022/02/05 06:58:58;;;;;;;4.13;3.47;;;9.00;99.90;;;;;;5053010;28;20207;-72
2022/02/05 07:01:25;;;;;;;4.30;2.83;;;9.00;99.90;;;;;;5053247;28;20276;-72
2022/02/05 07:03:54;;;;;;;4.20;3.03;;;9.00;99.90;;;;;;5052314;28;20253;-72
2022/02/05 07:06:21;;;;;;;5.60;3.93;;;9.10;99.90;;;;;;5052612;28;20662;-73
2022/02/05 07:08:48;;;;;;;6.60;4.07;;;9.10;99.90;;;;;;5052283;28;20207;-73
2022/02/05 07:11:15;;;;;;;5.17;3.50;;;9.10;99.90;;;;;;5052292;28;20203;-74
2022/02/05 07:13:42;;;;;;;4.90;3.30;;;9.10;99.90;;;;;;5052288;28;20239;-73
2022/02/05 07:16:14;;;;;;;5.63;3.40;;;9.10;99.90;;;;;;5052590;28;20256;-74
2022/02/05 07:18:51;;;;;;;10.13;4.53;;;9.10;99.90;;;;;;5052217;28;20206;-73
2022/02/05 07:21:29;;;;;;;6.07;4.00;;;9.10;99.90;;;;;;5052453;28;20202;-73
2022/02/05 07:24:14;;;;;;;4.57;3.00;;;9.10;99.90;;;;;;5052255;28;20567;-73
2022/02/05 07:29:25;;;;;;;4.70;3.40;;;9.10;99.90;;;;;;5052854;28;20378;-72
2022/02/05 07:31:54;;;;;;;8.13;4.43;;;9.10;99.90;;;;;;5051715;28;20686;-72
2022/02/05 07:34:24;;;;;;;8.80;3.93;;;9.10;99.90;;;;;;5051934;28;20288;-74
2022/02/05 07:36:58;;;;;;;11.57;4.30;;;9.10;99.90;;;;;;5051500;28;20210;-74
2022/02/05 07:39:25;;;;;;;6.37;3.80;;;9.20;99.90;;;;;;5051955;28;20206;-74
2022/02/05 07:41:53;;;;;;;6.03;3.53;;;9.20;99.90;;;;;;5051649;28;20268;-73
2022/02/05 07:44:20;;;;;;;8.37;3.23;;;9.20;99.90;;;;;;5051914;28;20207;-74
2022/02/05 07:46:50;;;;;;;6.07;3.50;;;9.30;99.90;;;;;;5051696;28;20199;-78
2022/02/05 07:49:18;;;;;;;6.20;4.37;;;9.20;99.90;;;;;;5052110;28;20198;-74
2022/02/05 07:51:45;;;;;;;6.63;4.10;;;9.30;99.90;;;;;;5051474;28;20203;-73
2022/02/05 07:54:14;;;;;;;4.60;3.60;;;9.30;99.90;;;;;;5051451;28;20231;-74
2022/02/05 07:56:43;;;;;;;7.43;3.73;;;9.30;99.90;;;;;;5051425;28;20635;-75
2022/02/05 07:59:10;;;;;;;7.07;3.77;;;9.30;99.90;;;;;;5051623;28;20207;-74
2022/02/05 08:01:37;;;;;;;8.93;3.93;;;9.60;99.90;;;;;;5051537;28;20203;-75
2022/02/05 08:04:04;;;;;;;7.47;3.50;;;9.70;99.90;;;;;;5051539;28;20203;-74
2022/02/05 08:06:32;;;;;;;7.77;3.60;;;9.80;99.90;;;;;;5051340;28;20245;-75
2022/02/05 08:09:02;;;;;;;9.47;5.00;;;9.90;99.90;;;;;;5051654;28;20203;-75
2022/02/05 08:11:37;;;;;;;8.03;4.57;;;9.80;99.90;;;;;;5051496;28;20302;-75
2022/02/05 08:14:08;;;;;;;12.93;5.90;;;9.90;99.90;;;;;;5051111;28;20728;-75
2022/02/05 08:16:49;;;;;;;6.30;3.37;;;9.80;99.90;;;;;;5050803;28;20202;-76
2022/02/05 08:19:16;;;;;;;7.30;3.80;;;9.90;99.90;;;;;;5051315;28;20203;-75
2022/02/05 08:21:44;;;;;;;11.60;4.37;;;10.00;99.90;;;;;;5050682;28;20203;-75
2022/02/05 08:24:11;;;;;;;5.27;3.40;;;9.90;99.90;;;;;;5051205;28;20260;-75
2022/02/05 08:26:40;;;;;;;6.30;3.80;;;9.80;99.90;;;;;;5050985;28;20203;-75
2022/02/05 08:29:08;;;;;;;6.63;3.40;;;9.80;99.90;;;;;;5051215;28;20248;-75
2022/02/05 08:31:35;;;;;;;6.80;3.33;;;9.60;99.90;;;;;;5050750;28;20677;-77
2022/02/05 08:34:03;;;;;;;5.73;2.73;;;9.40;99.90;;;;;;5051111;28;20292;-77
2022/02/05 08:36:40;;;;;;;3.40;2.50;;;9.30;99.90;;;;;;5062782;28;20583;-76
2022/02/05 08:39:08;;;;;;;5.27;2.90;;;9.20;99.90;;;;;;5081533;28;20258;-76
2022/02/05 08:41:36;;;;;;;3.03;2.27;;;9.10;99.90;;;;;;5071892;28;20234;-77
2022/02/05 08:44:05;;;;;;;5.50;3.03;;;9.20;99.90;;;;;;5083018;28;20326;-77
2022/02/05 08:46:33;;;;;;;3.07;2.10;;;9.20;99.90;;;;;;5090062;28;20637;-77
2022/02/05 08:49:00;;;;;;;2.50;2.20;;;9.20;99.90;;;;;;5090715;28;20205;-77
2022/02/05 08:51:27;;;;;;;3.13;1.30;;;9.30;99.90;;;;;;5090375;28;20603;-77
2022/02/05 08:53:55;;;;;;;1.60;1.50;;;9.30;99.90;;;;;;5083642;28;20287;-76
2022/02/05 08:56:23;;;;;;;4.73;1.73;;;9.20;99.90;;;;;;5087950;28;20213;-78
2022/02/05 08:58:50;;;;;;;2.20;1.67;;;9.20;99.90;;;;;;5090539;28;20205;-78
2022/02/05 09:01:23;;;;;;;2.10;1.43;;;9.30;99.90;;;;;;5090534;28;20579;-78
2022/02/05 09:03:59;;;;;;;2.00;1.37;;;9.40;99.90;;;;;;5090347;28;20477;-77
2022/02/05 09:06:30;;;;;;;2.03;1.67;;;9.30;99.90;;;;;;5090595;28;20684;-77
2022/02/05 09:09:08;;;;;;;2.03;1.00;;;9.30;99.90;;;;;;5078668;28;20206;-75
2022/02/05 09:11:40;;;;;;;2.77;1.10;;;9.20;99.90;;;;;;5062837;28;20603;-74
2022/02/05 09:14:30;;;;;;;1.60;1.43;;;9.20;99.90;;;;;;5065447;28;20214;-74
2022/02/05 09:16:58;;;;;;;2.67;2.07;;;9.40;99.90;;;;;;5077922;28;20251;-74
2022/02/05 09:19:26;;;;;;;1.97;1.57;;;9.50;99.90;;;;;;5090067;28;20210;-74
2022/02/05 09:21:52;;;;;;;1.43;1.27;;;9.50;99.90;;;;;;5079254;28;20218;-75
2022/02/05 09:24:19;;;;;;;1.73;1.17;;;9.40;99.90;;;;;;5090172;28;20209;-76
2022/02/05 09:26:55;;;;;;;2.80;1.00;;;9.40;99.90;;;;;;5090202;28;20260;-74
2022/02/05 09:29:23;;;;;;;1.93;1.30;;;9.30;99.90;;;;;;5076362;28;20637;-79
2022/02/05 09:31:50;;;;;;;2.03;1.20;;;9.20;99.90;;;;;;5083108;28;20558;-75
2022/02/05 09:34:20;;;;;;;3.83;3.10;;;9.10;99.90;;;;;;5085104;28;20225;-74
2022/02/05 09:36:47;;;;;;;5.77;3.70;;;9.10;99.90;;;;;;5077058;28;20213;-75
2022/02/05 09:39:15;;;;;;;4.77;4.37;;;9.00;99.90;;;;;;5070095;28;20264;-76
2022/02/05 09:41:44;;;;;;;4.87;4.03;;;8.70;99.90;;;;;;5077643;28;20622;-76
2022/02/05 09:44:12;;;;;;;5.67;4.23;;;8.60;99.90;;;;;;5071948;28;20682;-74
2022/02/05 09:46:40;;;;;;;4.67;3.60;;;8.60;99.90;;;;;;5068856;28;20678;-79
2022/02/05 09:49:08;;;;;;;4.07;3.53;;;8.50;99.90;;;;;;5070063;28;20206;-73
2022/02/05 09:51:46;;;;;;;4.10;3.33;;;8.60;99.90;;;;;;5073514;28;20708;-73
2022/02/05 09:54:13;;;;;;;11.30;3.30;;;8.60;99.90;;;;;;5075024;28;20262;-74
2022/02/05 09:56:40;;;;;;;2.93;2.40;;;8.50;99.90;;;;;;5085166;28;20197;-80
2022/02/05 09:59:07;;;;;;;4.63;3.67;;;8.50;99.90;;;;;;5065540;28;20207;-73
2022/02/05 10:01:36;;;;;;;2.80;2.50;;;8.50;99.90;;;;;;5089747;28;20211;-73
2022/02/05 10:04:12;;;;;;;2.80;2.37;;;8.40;99.90;;;;;;5093722;28;20210;-80
2022/02/05 10:06:51;;;;;;;4.07;2.77;;;8.50;99.90;;;;;;5093075;28;20254;-74
2022/02/05 10:09:19;;;;;;;4.70;2.80;;;8.70;99.90;;;;;;5092193;28;20209;-75
2022/02/05 10:11:51;;;;;;;2.77;2.57;;;9.00;99.90;;;;;;5093085;28;20197;-73
2022/02/05 10:14:22;;;;;;;2.53;2.20;;;9.30;99.90;;;;;;5093522;28;20673;-82
2022/02/05 10:16:51;;;;;;;4.23;2.53;;;9.50;99.90;;;;;;5082914;28;20212;-78
2022/02/05 10:19:19;;;;;;;2.93;2.17;;;9.50;99.90;;;;;;5093375;28;20683;-72
2022/02/05 10:22:01;;;;;;;3.03;2.07;;;9.50;99.90;;;;;;5093145;28;20258;-73
2022/02/05 10:24:29;;;;;;;3.00;2.13;;;9.50;99.90;;;;;;5093567;28;20202;-84
2022/02/05 10:26:56;;;;;;;2.30;1.90;;;9.60;99.90;;;;;;5083036;28;20291;-73
2022/02/05 10:29:23;;;;;;;4.20;2.27;;;9.80;99.90;;;;;;5069517;28;20206;-73
2022/02/05 10:32:03;;;;;;;3.03;1.83;;;10.00;99.90;;;;;;5078905;28;20214;-73
2022/02/05 10:34:35;;;;;;;2.97;1.63;;;10.40;99.90;;;;;;5088169;28;20240;-73
2022/02/05 10:37:19;;;;;;;3.57;1.57;;;11.00;99.90;;;;;;5092867;28;20590;-73
2022/02/05 10:40:08;;;;;;;1.70;1.33;;;11.20;99.90;;;;;;5078755;28;20229;-76
2022/02/05 10:45:20;;;;;;;1.43;1.30;;;10.60;99.90;;;;;;5092852;28;20201;-79
2022/02/05 10:47:51;;;;;;;1.80;1.63;;;10.50;99.90;;;;;;5090338;28;20565;-77
2022/02/05 10:50:21;;;;;;;3.90;1.30;;;10.30;99.90;;;;;;5062102;28;20271;-78
2022/02/05 10:52:58;;;;;;;2.93;1.80;;;10.20;99.90;;;;;;5087013;28;20301;-77
2022/02/05 10:55:44;;;;;;;1.90;1.47;;;10.30;99.90;;;;;;5087191;28;20329;-73
2022/02/05 10:58:20;;;;;;;3.07;1.60;;;10.40;99.90;;;;;;5082549;28;20271;-78
2022/02/05 11:06:17;;;;;;;1.20;1.10;;;10.70;99.90;;;;;;5072735;28;20229;-73
2022/02/05 11:08:47;;;;;;;2.13;1.93;;;10.40;99.90;;;;;;5083860;28;20661;-78
2022/02/05 11:14:07;;;;;;;4.50;2.50;;;10.10;99.90;;;;;;5090810;28;20236;-73
2022/02/05 11:19:19;;;;;;;1.63;1.53;;;10.50;99.90;;;;;;5088744;28;20216;-78
2022/02/05 11:21:47;;;;;;;2.57;1.97;;;10.60;99.90;;;;;;5091692;28;20259;-76
2022/02/05 11:24:16;;;;;;;1.23;1.13;;;10.80;99.90;;;;;;5078858;28;20270;-78
2022/02/05 11:26:44;;;;;;;1.47;1.37;;;10.70;99.90;;;;;;5086736;28;20202;-74
2022/02/05 11:29:27;;;;;;;1.77;1.40;;;10.70;99.90;;;;;;5083623;28;20214;-74
2022/02/05 11:31:56;;;;;;;3.17;1.90;;;10.70;99.90;;;;;;5092010;28;20252;-75
2022/02/05 11:34:30;;;;;;;1.30;1.20;;;10.60;99.90;;;;;;5091937;28;20209;-74
2022/02/05 11:37:04;;;;;;;2.30;1.33;;;10.30;99.90;;;;;;5092180;28;20278;-74
2022/02/05 11:39:46;;;;;;;1.30;1.13;;;10.50;99.90;;;;;;5091364;28;20205;-75
2022/02/05 11:42:30;;;;;;;1.00;0.87;;;11.20;99.90;;;;;;5091917;28;20262;-76
2022/02/05 11:44:59;;;;;;;1.80;0.87;;;11.70;99.90;;;;;;5088928;28;20209;-74
2022/02/05 11:47:31;;;;;;;2.67;1.40;;;11.80;99.90;;;;;;5092094;28;20201;-78
2022/02/05 11:50:20;;;;;;;2.30;1.60;;;11.40;99.90;;;;;;5086338;28;20255;-75
2022/02/05 11:53:00;;;;;;;2.45;1.30;;;10.70;99.90;;;;;;5082752;28;20213;-74
2022/02/05 11:55:43;;;;;;;1.98;1.27;;;10.60;99.90;;;;;;5091937;28;20225;-78
2022/02/05 11:58:12;;;;;;;1.73;1.00;;;11.20;99.90;;;;;;5091253;28;20616;-77
2022/02/05 12:00:41;;;;;;;1.27;1.17;;;11.40;99.90;;;;;;5078841;28;20206;-74
2022/02/05 12:03:35;;;;;;;1.80;1.30;;;11.20;99.90;;;;;;5089943;28;20205;-74
2022/02/05 12:06:12;;;;;;;1.10;0.95;;;11.00;99.90;;;;;;5067451;28;20214;-74
2022/02/05 12:08:43;;;;;;;1.13;0.90;;;11.00;99.90;;;;;;5090842;28;20653;-78
2022/02/05 12:11:29;;;;;;;1.77;1.23;;;11.00;99.90;;;;;;5083542;28;20620;-76
2022/02/05 12:14:11;;;;;;;1.40;0.93;;;10.50;99.90;;;;;;5090717;28;20205;-78
2022/02/05 12:16:39;;;;;;;1.57;0.90;;;10.20;99.90;;;;;;5084953;28;20225;-77
2022/02/05 12:19:15;;;;;;;1.00;0.87;;;10.20;99.90;;;;;;5083336;28;20206;-77
2022/02/05 12:21:55;;;;;;;1.20;0.87;;;10.40;99.90;;;;;;5084041;28;20201;-77
2022/02/05 12:24:41;;;;;;;1.80;1.40;;;10.80;99.90;;;;;;5071588;28;20202;-74
2022/02/05 12:27:32;;;;;;;3.47;1.47;;;10.70;99.90;;;;;;5090820;28;20214;-73
2022/02/05 12:30:35;;;;;;;1.90;1.00;;;10.60;99.90;;;;;;5090448;28;20205;-74
2022/02/05 12:33:04;;;;;;;1.30;1.20;;;10.40;99.90;;;;;;5090859;28;20239;-77
2022/02/05 12:35:32;;;;;;;2.47;1.17;;;10.20;99.90;;;;;;5090532;28;20233;-73
2022/02/05 12:38:01;;;;;;;1.27;0.90;;;10.00;99.90;;;;;;5077359;28;20209;-73
2022/02/05 12:40:30;;;;;;;1.50;1.00;;;10.00;99.90;;;;;;5090921;28;20677;-76
2022/02/05 12:42:59;;;;;;;1.80;1.10;;;10.00;99.90;;;;;;5089033;28;20197;-73
2022/02/05 12:45:52;;;;;;;2.77;0.93;;;10.30;99.90;;;;;;5091295;28;20204;-75
2022/02/05 12:48:21;;;;;;;0.70;0.60;;;10.80;99.90;;;;;;5089867;28;20677;-74
2022/02/05 12:50:49;;;;;;;1.50;0.60;;;11.40;99.90;;;;;;5074784;28;20337;-78
2022/02/05 12:53:17;;;;;;;2.03;0.70;;;11.50;99.90;;;;;;5085388;28;20212;-77
2022/02/05 12:55:46;;;;;;;1.27;0.60;;;11.70;99.90;;;;;;5090287;28;20736;-73
2022/02/05 12:58:18;;;;;;;2.57;0.90;;;11.50;99.90;;;;;;5071896;28;20587;-78
2022/02/05 13:00:46;;;;;;;0.60;0.60;;;11.30;99.90;;;;;;5070543;28;20209;-74
2022/02/05 13:03:24;;;;;;;1.95;0.70;;;11.10;99.90;;;;;;5070747;28;20256;-73
2022/02/05 13:05:51;;;;;;;2.23;1.13;;;10.90;99.90;;;;;;5070208;28;20585;-78
2022/02/05 13:08:18;;;;;;;3.53;1.00;;;10.80;99.90;;;;;;5070622;28;20735;-77
2022/02/05 13:10:47;;;;;;;2.90;0.90;;;10.60;99.90;;;;;;5070404;28;20202;-75
2022/02/05 13:13:15;;;;;;;1.93;0.80;;;10.40;99.90;;;;;;5070439;28;20600;-75
2022/02/05 13:15:42;;;;;;;3.80;1.97;;;10.30;99.90;;;;;;5070225;28;20751;-79
2022/02/05 13:18:20;;;;;;;6.20;1.30;;;10.20;99.90;;;;;;5070429;28;20198;-73
2022/02/05 13:26:21;;;;;;;1.90;1.17;;;9.90;99.90;;;;;;5067392;28;20218;-76
2022/02/05 13:29:15;;;;;;;1.73;1.10;;;10.00;99.90;;;;;;5076469;28;20754;-77
2022/02/05 13:34:31;;;;;;;3.63;0.93;;;10.30;99.90;;;;;;5086757;28;20279;-77
2022/02/05 13:37:05;;;;;;;2.10;1.23;;;10.50;99.90;;;;;;5085929;28;20236;-73
2022/02/05 13:39:49;;;;;;;0.70;0.50;;;10.70;99.90;;;;;;5093738;28;20198;-77
2022/02/05 13:42:20;;;;;;;2.17;0.63;;;10.90;99.90;;;;;;5093693;28;20205;-74
2022/02/05 13:44:56;;;;;;;1.17;0.63;;;10.90;99.90;;;;;;5079509;28;20213;-74
2022/02/05 13:47:28;;;;;;;1.67;1.10;;;11.00;99.90;;;;;;5083934;28;20297;-78
2022/02/05 13:50:11;;;;;;;0.60;0.57;;;11.30;99.90;;;;;;5094077;28;20213;-73
2022/02/05 13:52:41;;;;;;;2.47;0.70;;;11.30;99.90;;;;;;5092246;28;20255;-78
2022/02/05 13:55:27;;;;;;;2.90;1.00;;;11.30;99.90;;;;;;5073381;28;20202;-74
2022/02/05 13:57:59;;;;;;;1.17;0.83;;;11.00;99.90;;;;;;5075269;28;20275;-74
2022/02/05 14:00:43;;;;;;;0.95;0.85;;;11.50;99.90;;;;;;5093840;28;20254;-75
2022/02/05 14:03:11;;;;;;;0.70;0.70;;;11.80;99.90;;;;;;5093042;28;20209;-79
2022/02/05 14:05:44;;;;;;;1.17;0.80;;;12.10;99.90;;;;;;5093352;28;20198;-77
2022/02/05 14:08:11;;;;;;;2.13;0.60;;;12.30;99.90;;;;;;5075488;28;20198;-73
2022/02/05 14:10:39;;;;;;;0.82;0.63;;;11.90;99.90;;;;;;5074654;28;20278;-74
2022/02/05 14:13:17;;;;;;;0.63;0.60;;;11.50;99.90;;;;;;5081397;28;20209;-77
2022/02/05 14:15:52;;;;;;;0.52;0.40;;;11.30;99.90;;;;;;5092893;28;20638;-77
2022/02/05 14:18:19;;;;;;;2.00;0.65;;;10.90;99.90;;;;;;5079412;28;20208;-74
2022/02/05 14:20:50;;;;;;;1.17;0.70;;;10.70;99.90;;;;;;5080905;28;20260;-75
2022/02/05 14:23:19;;;;;;;2.05;0.45;;;10.50;99.90;;;;;;5078210;28;20255;-73
2022/02/05 14:25:58;;;;;;;1.73;0.90;;;10.40;99.90;;;;;;5081659;28;20214;-73
2022/02/05 14:28:30;;;;;;;2.53;0.93;;;10.10;99.90;;;;;;5066999;28;20767;-73
2022/02/05 14:31:10;;;;;;;2.27;0.70;;;10.00;99.90;;;;;;5093637;28;20206;-77
2022/02/05 14:33:52;;;;;;;0.63;0.60;;;9.80;99.90;;;;;;5083902;28;20201;-77
2022/02/05 14:36:46;;;;;;;2.40;0.80;;;10.00;99.90;;;;;;5091539;28;20236;-77
2022/02/05 14:42:00;;;;;;;0.83;0.70;;;10.10;99.90;;;;;;5083936;28;20209;-73
2022/02/05 14:44:27;;;;;;;3.60;0.93;;;10.10;99.90;;;;;;5088532;28;20206;-77
2022/02/05 14:46:55;;;;;;;2.10;0.80;;;10.20;99.90;;;;;;5092151;28;20217;-73
2022/02/05 14:49:22;;;;;;;1.00;0.50;;;10.20;99.90;;;;;;5078563;28;20670;-75
2022/02/05 14:51:50;;;;;;;0.60;0.60;;;10.10;99.90;;;;;;5092729;28;20266;-78
2022/02/05 14:54:17;;;;;;;1.30;0.70;;;10.10;99.90;;;;;;5092544;28;20205;-75
2022/02/05 14:56:44;;;;;;;3.27;0.80;;;10.10;99.90;;;;;;5092222;28;20225;-74
2022/02/05 14:59:11;;;;;;;0.60;0.60;;;10.20;99.90;;;;;;5092636;28;20673;-73